Time;durP1;ratioP1;P1;durP2;ratioP2;P2;SDS_P1;SDS_P2;PMS_P1;PMS_P2;Temp;Humidity;BMP_temperature;BMP_pressure;BME280_temperature;BME280_humidity;BME280_pressure;Samples;Min_cycle;Max_cycle;Signal;HPM_P1;HPM_P2
2022/08/04 00:01:55;;;;;;;4.88;4.28;;;;;;;33.96;28.43;98402.56;5080474;28;20043;-79
2022/08/04 00:04:52;;;;;;;5.28;4.18;;;;;;;33.97;28.24;98399.25;5086136;28;20072;-80
2022/08/04 00:07:47;;;;;;;6.47;5.07;;;;;;;33.68;28.89;98390.72;5083601;28;20495;-79
2022/08/04 00:10:16;;;;;;;6.45;4.93;;;;;;;33.49;29.17;98395.06;5081633;28;20040;-79
2022/08/04 00:12:47;;;;;;;5.40;4.93;;;;;;;33.67;28.75;98397.72;5082077;28;20029;-79
2022/08/04 00:15:15;;;;;;;4.50;4.10;;;;;;;33.76;28.53;98394.75;5086815;28;20028;-80
2022/08/04 00:17:51;;;;;;;5.32;4.82;;;;;;;33.71;28.41;98394.66;5083290;28;20055;-79
2022/08/04 00:20:19;;;;;;;4.63;4.20;;;;;;;33.62;28.46;98400.47;5085222;28;20039;-80
2022/08/04 00:22:47;;;;;;;5.45;4.95;;;;;;;33.71;28.24;98408.91;5087370;28;20558;-80
2022/08/04 00:25:14;;;;;;;5.75;5.13;;;;;;;33.38;28.47;98412.72;5087355;28;20480;-80
2022/08/04 00:27:40;;;;;;;5.18;4.68;;;;;;;33.27;28.98;98406.03;5087188;28;20020;-79
2022/08/04 00:30:07;;;;;;;4.85;4.45;;;;;;;33.32;28.44;98408.19;5078072;28;20105;-79
2022/08/04 00:32:33;;;;;;;9.45;4.53;;;;;;;33.31;28.51;98400.91;5092443;28;20055;-79
2022/08/04 00:35:00;;;;;;;5.70;4.32;;;;;;;33.47;28.09;98399.66;5088413;28;20106;-80
2022/08/04 00:37:26;;;;;;;4.95;4.47;;;;;;;33.65;27.78;98403.13;5087232;28;20426;-80
2022/08/04 00:39:56;;;;;;;5.60;5.10;;;;;;;33.54;28.12;98408.59;5085222;28;20036;-79
2022/08/04 00:42:26;;;;;;;5.50;4.60;;;;;;;33.53;28.30;98406.25;5085731;28;20032;-79
2022/08/04 00:45:12;;;;;;;5.63;5.13;;;;;;;33.64;28.07;98407.25;5083564;28;20035;-80
2022/08/04 00:48:00;;;;;;;4.45;4.05;;;;;;;33.75;27.75;98413.13;5085330;28;20416;-80
2022/08/04 00:50:49;;;;;;;4.90;4.40;;;;;;;33.79;28.34;98413.72;5086546;28;20036;-79
2022/08/04 00:53:56;;;;;;;4.93;4.43;;;;;;;33.51;28.16;98411.63;5084614;28;20032;-79
2022/08/04 00:57:03;;;;;;;4.88;4.47;;;;;;;33.58;28.06;98414.91;5007771;28;20132;-79
2022/08/04 01:00:02;;;;;;;4.97;4.57;;;;;;;33.50;27.83;98410.06;5078789;28;20060;-79
2022/08/04 01:02:49;;;;;;;4.90;4.47;;;;;;;33.25;28.17;98415.06;5084821;28;20028;-79
2022/08/04 01:06:05;;;;;;;4.30;3.85;;;;;;;32.88;28.71;98404.47;5084246;28;20408;-79
2022/08/04 01:08:59;;;;;;;4.60;3.85;;;;;;;32.97;28.68;98413.72;5085695;28;20458;-79
2022/08/04 01:12:04;;;;;;;4.50;4.10;;;;;;;32.95;28.63;98413.44;5086846;28;20467;-79
2022/08/04 01:14:39;;;;;;;4.50;4.03;;;;;;;33.18;28.28;98411.81;5083829;28;20032;-79
2022/08/04 01:17:17;;;;;;;4.45;4.05;;;;;;;33.32;28.29;98411.84;5086042;28;20038;-80
2022/08/04 01:19:54;;;;;;;5.80;4.13;;;;;;;33.02;28.87;98410.22;5089110;28;20035;-79
2022/08/04 01:22:32;;;;;;;4.45;4.05;;;;;;;32.83;28.86;98405.13;5088341;28;20057;-79
2022/08/04 01:25:07;;;;;;;4.60;4.20;;;;;;;32.62;29.03;98412.72;5087286;28;20098;-79
2022/08/04 01:27:48;;;;;;;5.55;4.38;;;;;;;32.37;29.30;98418.88;5090128;28;20488;-80
2022/08/04 01:30:14;;;;;;;;;;;;;;;32.37;29.63;98407.50;5090145;28;20041;-79
2022/08/04 01:33:03;;;;;;;4.47;4.10;;;;;;;32.51;29.72;98404.72;5090222;28;19969;-79
2022/08/04 01:35:38;;;;;;;4.50;4.10;;;;;;;32.52;29.85;98408.38;5085969;28;20035;-79
2022/08/04 01:38:23;;;;;;;4.22;3.83;;;;;;;32.31;30.07;98413.06;5087554;28;20119;-79
2022/08/04 01:41:08;;;;;;;4.85;4.45;;;;;;;32.12;30.42;98402.25;5089961;28;20040;-79
2022/08/04 01:43:39;;;;;;;4.68;4.28;;;;;;;31.83;30.94;98405.69;5087922;28;20130;-79
2022/08/04 01:46:07;;;;;;;;;;;;;;;31.81;30.72;98411.06;5085429;28;20027;-79
2022/08/04 01:48:37;;;;;;;5.65;3.92;;;;;;;31.58;31.10;98411.78;5089629;28;20005;-79
2022/08/04 01:51:08;;;;;;;4.60;4.25;;;;;;;31.33;31.69;98410.88;5088940;28;20043;-79
2022/08/04 01:53:40;;;;;;;4.63;4.22;;;;;;;31.28;31.57;98407.88;5089050;28;20052;-79
2022/08/04 01:56:08;;;;;;;4.28;3.97;;;;;;;31.41;31.24;98405.66;5091438;28;20032;-79
2022/08/04 01:58:37;;;;;;;4.88;4.13;;;;;;;31.71;31.01;98407.47;5089426;28;20116;-79
2022/08/04 02:01:04;;;;;;;4.30;4.00;;;;;;;31.39;31.30;98402.50;5087923;28;20063;-79
2022/08/04 02:03:32;;;;;;;4.25;3.95;;;;;;;31.72;30.64;98394.84;5087232;28;20035;-79
2022/08/04 02:06:17;;;;;;;5.38;4.32;;;;;;;31.87;30.18;98404.25;5089296;28;20038;-79
2022/08/04 02:09:11;;;;;;;3.95;3.60;;;;;;;31.82;30.74;98401.28;5088552;28;20020;-79
2022/08/04 02:11:40;;;;;;;4.55;4.07;;;;;;;31.37;31.26;98393.66;5088499;28;20028;-79
2022/08/04 02:14:39;;;;;;;7.47;4.00;;;;;;;31.78;30.60;98401.47;5091713;28;20122;-79
2022/08/04 02:17:14;;;;;;;4.55;4.22;;;;;;;31.66;30.76;98393.94;5086978;28;20511;-80
2022/08/04 02:20:06;;;;;;;4.05;3.65;;;;;;;31.72;30.50;98394.03;5086992;28;20035;-79
2022/08/04 02:22:38;;;;;;;5.20;4.70;;;;;;;31.95;29.65;98387.66;5087986;28;20396;-79
2022/08/04 02:25:07;;;;;;;4.80;4.40;;;;;;;32.00;29.88;98384.16;5087176;28;20043;-79
2022/08/04 02:28:18;;;;;;;3.90;3.35;;;;;;;32.30;29.14;98385.13;5089298;28;20035;-79
2022/08/04 02:30:53;;;;;;;4.65;4.18;;;;;;;31.70;30.16;98376.72;5071540;28;20054;-79
2022/08/04 02:33:25;;;;;;;3.97;3.67;;;;;;;31.28;31.00;98376.66;5091483;28;20116;-79
2022/08/04 02:35:57;;;;;;;4.90;4.50;;;;;;;30.84;31.92;98375.44;5088036;28;20480;-79
2022/08/04 02:38:39;;;;;;;4.40;4.00;;;;;;;31.20;31.46;98375.44;5087661;28;20040;-79
2022/08/04 02:41:08;;;;;;;4.05;3.70;;;;;;;31.64;30.62;98378.63;5088464;28;20024;-79
2022/08/04 02:43:37;;;;;;;4.18;3.78;;;;;;;31.99;29.69;98377.72;5084541;28;20085;-79
2022/08/04 02:46:04;;;;;;;4.55;4.15;;;;;;;32.11;29.84;98383.66;5086363;28;20029;-79
2022/08/04 02:48:33;;;;;;;3.92;3.58;;;;;;;32.43;28.89;98375.09;5085843;28;20040;-79
2022/08/04 02:51:01;;;;;;;4.55;4.15;;;;;;;32.64;28.31;98367.53;5086617;28;20116;-79
2022/08/04 02:53:29;;;;;;;3.88;3.58;;;;;;;32.68;28.31;98374.59;5085658;28;20032;-79
2022/08/04 02:55:57;;;;;;;3.60;3.30;;;;;;;32.83;28.58;98374.66;5084824;28;20032;-79
2022/08/04 02:58:27;;;;;;;3.80;3.15;;;;;;;32.52;28.25;98377.88;5081243;28;20036;-79
2022/08/04 03:00:53;;;;;;;;;;;;;;;31.91;28.86;98384.97;5087435;28;20492;-79
2022/08/04 03:03:28;;;;;;;3.55;3.25;;;;;;;31.87;29.45;98381.53;5087008;28;19912;-79
2022/08/04 03:06:12;;;;;;;4.82;3.80;;;;;;;31.92;29.41;98382.94;5086937;28;20451;-79
2022/08/04 03:08:50;;;;;;;3.38;3.08;;;;;;;32.26;28.83;98387.34;5085646;28;20044;-79
2022/08/04 03:11:43;;;;;;;4.25;3.58;;;;;;;32.34;28.78;98385.72;5088450;28;20039;-79
2022/08/04 03:14:46;;;;;;;5.07;4.20;;;;;;;32.35;28.82;98388.06;5086857;28;20054;-79
2022/08/04 03:17:52;;;;;;;3.28;3.08;;;;;;;32.09;29.08;98390.59;5086286;28;20038;-79
2022/08/04 03:20:48;;;;;;;4.13;3.17;;;;;;;32.11;28.91;98384.44;5083697;28;20093;-79
2022/08/04 03:23:45;;;;;;;3.25;3.05;;;;;;;32.19;28.64;98376.34;5086818;28;20035;-79
2022/08/04 03:26:54;;;;;;;4.07;3.67;;;;;;;32.62;28.12;98375.75;5087059;28;20030;-79
2022/08/04 03:29:38;;;;;;;3.88;3.55;;;;;;;32.84;28.40;98366.91;5087198;28;20412;-79
2022/08/04 03:32:37;;;;;;;3.05;2.85;;;;;;;32.83;27.72;98379.53;5093417;28;20395;-79
2022/08/04 03:35:05;;;;;;;4.38;3.97;;;;;;;32.92;27.44;98374.56;5075122;28;20055;-79
2022/08/04 03:38:12;;;;;;;3.88;3.22;;;;;;;32.88;27.80;98382.50;5087775;28;20032;-79
2022/08/04 03:40:59;;;;;;;4.60;4.05;;;;;;;32.56;28.42;98381.31;5084274;28;20057;-79
2022/08/04 03:44:04;;;;;;;4.00;3.70;;;;;;;32.03;29.04;98384.00;5082715;28;20056;-79
2022/08/04 03:46:58;;;;;;;4.45;4.03;;;;;;;31.55;29.89;98385.13;5085851;28;20067;-79
2022/08/04 03:49:36;;;;;;;3.85;3.55;;;;;;;31.68;29.90;98388.56;5085604;28;20032;-79
2022/08/04 03:55:04;;;;;;;4.53;4.07;;;;;;;31.93;29.67;98390.16;5087092;28;20055;-79
2022/08/04 03:57:39;;;;;;;4.25;3.85;;;;;;;31.97;29.27;98396.53;5088522;28;20038;-78
2022/08/04 04:00:16;;;;;;;3.72;3.42;;;;;;;32.00;29.60;98395.53;5084030;28;20507;-79
2022/08/04 04:03:01;;;;;;;5.18;4.72;;;;;;;32.09;29.83;98393.44;5086152;28;20039;-79
2022/08/04 04:06:03;;;;;;;6.10;4.43;;;;;;;32.41;29.81;98403.22;5086468;28;20089;-79
2022/08/04 04:08:56;;;;;;;6.45;5.45;;;;;;;32.89;29.42;98389.75;5079149;28;20024;-78
2022/08/04 04:11:53;;;;;;;4.85;4.45;;;;;;;33.27;29.18;98394.66;5079195;28;20035;-78
2022/08/04 04:14:33;;;;;;;4.88;4.38;;;;;;;33.37;28.56;98396.91;5080703;28;20032;-79
2022/08/04 04:17:26;;;;;;;4.10;3.80;;;;;;;33.76;28.29;98397.59;5086114;28;20032;-80
2022/08/04 04:20:20;;;;;;;5.68;4.07;;;;;;;34.11;28.46;98394.03;5082722;28;20048;-79
2022/08/04 04:23:16;;;;;;;4.75;4.30;;;;;;;33.63;29.93;98396.34;5082865;28;22034;-78
2022/08/04 04:26:02;;;;;;;5.28;4.65;;;;;;;33.70;29.57;98396.72;5082144;28;20500;-80
2022/08/04 04:28:34;;;;;;;4.15;3.80;;;;;;;33.88;30.00;98395.72;5079728;28;20158;-79
2022/08/04 04:31:23;;;;;;;4.50;4.10;;;;;;;34.00;29.59;98397.47;5078207;28;20055;-79
2022/08/04 04:34:13;;;;;;;4.60;4.20;;;;;;;34.32;29.85;98401.31;5080642;28;20088;-79
2022/08/04 04:37:07;;;;;;;4.90;4.50;;;;;;;34.27;29.29;98396.31;5081707;28;20411;-79
2022/08/04 04:39:39;;;;;;;4.20;3.80;;;;;;;33.99;30.13;98395.88;5084769;28;20056;-80
2022/08/04 04:42:34;;;;;;;4.50;3.97;;;;;;;33.58;30.82;98403.53;5091768;28;20044;-80
2022/08/04 04:45:22;;;;;;;4.22;3.90;;;;;;;33.50;30.96;98402.31;5085149;28;20040;-80
2022/08/04 04:47:57;;;;;;;3.90;3.60;;;;;;;33.69;30.62;98398.00;5089394;28;20135;-79
2022/08/04 04:51:09;;;;;;;5.05;3.50;;;;;;;34.12;30.55;98398.44;5091538;28;20353;-79
2022/08/04 04:54:00;;;;;;;3.58;3.38;;;;;;;34.22;30.61;98405.56;5087966;28;20384;-79
2022/08/04 04:56:39;;;;;;;3.15;2.95;;;;;;;34.74;29.47;98407.38;5090084;28;20106;-79
2022/08/04 04:59:11;;;;;;;3.67;3.38;;;;;;;34.38;30.02;98408.66;5103419;28;20042;-79
2022/08/04 05:02:23;;;;;;;3.47;3.15;;;;;;;33.94;28.98;98403.06;5116115;28;20028;-79
2022/08/04 05:05:11;;;;;;;3.75;3.35;;;;;;;33.57;31.74;98409.69;5091467;28;20157;-79
2022/08/04 05:07:37;;;;;;;3.08;2.88;;;;;;;34.04;30.55;98415.19;5092871;28;20035;-79
2022/08/04 05:10:18;;;;;;;2.90;2.70;;;;;;;34.06;30.74;98406.91;5095923;28;20426;-79
2022/08/04 05:13:25;;;;;;;3.40;3.20;;;;;;;33.40;29.96;98409.38;5094963;28;20024;-79
2022/08/04 05:15:56;;;;;;;2.80;2.60;;;;;;;33.74;32.58;98405.88;5094614;28;20024;-79
2022/08/04 05:18:29;;;;;;;3.05;2.85;;;;;;;34.01;30.30;98414.06;5091804;28;20063;-80
2022/08/04 05:21:03;;;;;;;2.75;2.22;;;;;;;34.62;31.54;98415.00;5093589;28;20503;-80
2022/08/04 05:23:35;;;;;;;2.65;2.45;;;;;;;34.89;29.46;98415.84;5094068;28;20042;-80
2022/08/04 05:26:09;;;;;;;2.63;2.42;;;;;;;34.89;29.68;98419.50;5093015;28;20035;-80
2022/08/04 05:28:44;;;;;;;2.83;2.63;;;;;;;34.40;30.90;98428.16;5093715;28;20036;-80
2022/08/04 05:31:14;;;;;;;3.58;2.40;;;;;;;34.40;30.99;98423.22;5093274;28;20039;-80
2022/08/04 05:33:50;;;;;;;;;;;;;;;34.80;27.87;98416.78;5096544;28;20380;-80
2022/08/04 05:36:20;;;;;;;2.08;1.88;;;;;;;35.13;29.58;98416.41;5093086;28;19913;-80
2022/08/04 05:38:51;;;;;;;2.75;2.55;;;;;;;34.40;30.84;98422.44;5075798;28;20060;-80
2022/08/04 05:41:20;;;;;;;3.88;2.75;;;;;;;34.37;31.98;98424.22;5091707;28;20024;-80
2022/08/04 05:43:47;;;;;;;2.70;2.50;;;;;;;34.39;30.97;98423.72;5095953;28;21051;-79
2022/08/04 05:46:16;;;;;;;2.70;2.50;;;;;;;34.76;32.67;98427.63;5095358;28;20032;-79
2022/08/04 05:48:45;;;;;;;2.55;2.40;;;;;;;34.89;31.51;98425.22;5096006;28;20123;-80
2022/08/04 05:51:12;;;;;;;2.75;2.38;;;;;;;35.12;28.75;98420.56;5095763;28;20036;-79
2022/08/04 05:53:43;;;;;;;3.25;2.95;;;;;;;34.51;31.52;98426.25;5095798;28;20036;-80
2022/08/04 05:56:10;;;;;;;2.35;2.20;;;;;;;34.34;31.02;98428.06;5080512;28;20032;-80
2022/08/04 05:58:37;;;;;;;2.53;2.42;;;;;;;34.81;30.15;98421.22;5090382;28;20024;-80
2022/08/04 06:01:07;;;;;;;5.13;2.88;;;;;;;34.70;29.79;98426.78;5091913;28;20063;-80
2022/08/04 06:03:35;;;;;;;2.83;2.63;;;;;;;35.03;30.14;98420.72;5092209;28;20067;-80
2022/08/04 06:06:03;;;;;;;3.20;2.90;;;;;;;34.53;30.69;98429.41;5094009;28;20484;-80
2022/08/04 06:08:30;;;;;;;3.08;2.88;;;;;;;34.24;30.34;98432.31;5093751;28;20039;-80
2022/08/04 06:11:02;;;;;;;3.30;3.10;;;;;;;34.75;31.89;98429.69;5093460;28;20373;-80
2022/08/04 06:13:32;;;;;;;3.85;3.50;;;;;;;34.89;31.01;98438.69;5094304;28;20071;-80
2022/08/04 06:16:00;;;;;;;2.90;2.70;;;;;;;34.79;29.29;98434.41;5095044;28;20574;-80
2022/08/04 06:18:29;;;;;;;3.00;2.80;;;;;;;34.79;30.69;98437.25;5094761;28;20047;-80
2022/08/04 06:20:57;;;;;;;3.03;2.83;;;;;;;34.95;29.10;98442.38;5094879;28;20036;-80
2022/08/04 06:23:28;;;;;;;3.17;2.85;;;;;;;35.72;28.12;98434.69;5095208;28;20032;-80
2022/08/04 06:25:56;;;;;;;;;;;;;;;35.50;26.99;98445.91;5108699;28;20027;-80
2022/08/04 06:28:23;;;;;;;3.17;2.97;;;;;;;35.64;29.53;98445.00;5109098;28;19960;-80
2022/08/04 06:30:50;;;;;;;2.90;2.70;;;;;;;35.66;27.94;98441.66;5093252;28;20099;-80
2022/08/04 06:33:31;;;;;;;3.08;2.88;;;;;;;35.79;27.18;98437.09;5094543;28;20039;-80
2022/08/04 06:36:02;;;;;;;3.22;2.97;;;;;;;35.69;28.41;98447.13;5094445;28;20107;-80
2022/08/04 06:38:30;;;;;;;3.28;2.95;;;;;;;35.85;27.45;98448.59;5088858;28;20402;-80
2022/08/04 06:40:57;;;;;;;3.97;2.92;;;;;;;35.82;25.82;98447.53;5089780;28;20067;-81
2022/08/04 06:43:28;;;;;;;2.70;2.50;;;;;;;35.67;27.10;98443.22;5086830;28;20028;-81
2022/08/04 06:45:56;;;;;;;2.38;2.15;;;;;;;36.15;26.61;98446.25;5088532;28;20047;-80
2022/08/04 06:48:24;;;;;;;2.08;1.98;;;;;;;36.20;28.11;98439.81;5086520;28;20040;-80
2022/08/04 06:50:51;;;;;;;3.22;2.30;;;;;;;35.42;29.21;98436.22;5087694;28;20124;-80
2022/08/04 06:53:18;;;;;;;2.42;2.10;;;;;;;35.24;29.19;98433.69;5089274;28;20042;-81
2022/08/04 06:55:46;;;;;;;2.72;1.80;;;;;;;35.05;28.89;98438.94;5088548;28;20092;-80
2022/08/04 06:58:14;;;;;;;2.33;2.13;;;;;;;35.45;29.32;98435.22;5088065;28;20501;-80
2022/08/04 07:00:43;;;;;;;2.20;2.03;;;;;;;35.31;28.05;98431.16;5087531;28;20028;-80
2022/08/04 07:03:10;;;;;;;1.95;1.85;;;;;;;35.22;31.06;98441.94;5088156;28;20028;-80
2022/08/04 07:05:37;;;;;;;2.20;2.00;;;;;;;35.75;27.39;98435.75;5090379;28;20036;-81
2022/08/04 07:08:04;;;;;;;2.60;2.40;;;;;;;35.01;29.11;98434.69;5087095;28;20044;-80
2022/08/04 07:10:30;;;;;;;2.63;2.33;;;;;;;35.07;29.18;98436.34;5090232;28;20085;-80
2022/08/04 07:12:58;;;;;;;2.55;2.35;;;;;;;34.89;29.96;98438.69;5088248;28;20036;-80
2022/08/04 07:15:25;;;;;;;2.40;2.20;;;;;;;35.07;29.97;98429.84;5091533;28;20048;-81
2022/08/04 07:17:53;;;;;;;2.25;2.15;;;;;;;35.28;27.44;98428.53;5086219;28;20508;-81
2022/08/04 07:20:19;;;;;;;2.67;2.47;;;;;;;34.82;31.72;98430.56;5084958;28;20123;-80
2022/08/04 07:22:47;;;;;;;2.53;2.33;;;;;;;35.19;29.11;98431.53;5089947;28;20032;-80
2022/08/04 07:25:15;;;;;;;2.17;2.08;;;;;;;35.42;29.59;98437.00;5087370;28;20024;-80
2022/08/04 07:27:42;;;;;;;3.60;2.42;;;;;;;34.68;29.80;98435.06;5089733;28;20032;-79
2022/08/04 07:30:09;;;;;;;2.72;2.55;;;;;;;35.18;28.64;98435.69;5092262;28;20028;-79
2022/08/04 07:32:36;;;;;;;2.00;1.90;;;;;;;34.86;32.04;98431.13;5091926;28;20061;-79
2022/08/04 07:35:04;;;;;;;2.17;2.08;;;;;;;34.12;30.67;98426.94;5073774;28;20025;-79
2022/08/04 07:37:31;;;;;;;2.20;2.00;;;;;;;34.73;29.58;98429.41;5076198;28;20052;-79
2022/08/04 07:39:57;;;;;;;2.33;2.13;;;;;;;34.77;31.20;98428.41;5095873;28;20113;-80
2022/08/04 07:42:24;;;;;;;1.92;1.83;;;;;;;34.64;29.68;98435.25;5081671;28;20085;-79
2022/08/04 07:44:50;;;;;;;3.47;2.10;;;;;;;35.19;29.93;98423.78;5087777;28;20067;-79
2022/08/04 07:47:16;;;;;;;1.90;1.70;;;;;;;34.58;30.34;98427.91;5090620;28;20040;-80
2022/08/04 07:49:43;;;;;;;2.15;2.05;;;;;;;34.79;31.31;98429.47;5093821;28;20088;-80
2022/08/04 07:52:09;;;;;;;1.90;1.80;;;;;;;34.29;31.58;98430.81;5091592;28;20419;-79
2022/08/04 07:54:37;;;;;;;3.95;2.15;;;;;;;34.20;31.25;98428.88;5093139;28;20032;-79
2022/08/04 07:57:03;;;;;;;2.60;2.10;;;;;;;35.24;30.07;98427.97;5093493;28;20031;-80
2022/08/04 07:59:31;;;;;;;2.20;2.10;;;;;;;34.63;31.85;98422.28;5090428;28;20032;-80
2022/08/04 08:02:01;;;;;;;2.00;1.90;;;;;;;34.29;29.00;98425.91;5089025;28;20611;-81
2022/08/04 08:04:28;;;;;;;2.13;2.03;;;;;;;34.86;30.53;98431.13;5092144;28;20028;-81
2022/08/04 08:06:56;;;;;;;2.08;1.92;;;;;;;35.25;26.53;98415.25;5088134;28;20035;-80
2022/08/04 08:09:24;;;;;;;1.83;1.73;;;;;;;35.62;28.51;98419.03;5088960;28;20032;-81
2022/08/04 08:11:52;;;;;;;1.92;1.83;;;;;;;36.34;25.34;98425.31;5091280;28;20070;-80
2022/08/04 08:14:19;;;;;;;2.20;1.98;;;;;;;35.48;29.11;98425.59;5102426;28;20036;-82
2022/08/04 08:16:46;;;;;;;1.58;1.48;;;;;;;36.30;27.67;98427.63;5092906;28;20024;-82
2022/08/04 08:19:13;;;;;;;4.72;1.63;;;;;;;35.84;28.34;98424.16;5081260;28;20051;-80
2022/08/04 08:21:39;;;;;;;1.60;1.50;;;;;;;36.71;26.01;98423.19;5086666;28;20036;-80
2022/08/04 08:24:06;;;;;;;1.85;1.75;;;;;;;36.48;26.46;98424.38;5083328;28;20037;-80
2022/08/04 08:26:33;;;;;;;2.42;1.40;;;;;;;36.65;25.98;98418.75;5084762;28;20054;-79
2022/08/04 08:29:01;;;;;;;1.50;1.40;;;;;;;37.24;23.39;98425.28;5090533;28;20487;-80
2022/08/04 08:31:27;;;;;;;1.50;1.40;;;;;;;37.54;22.47;98410.50;5092816;28;20137;-80
2022/08/04 08:33:53;;;;;;;1.65;1.50;;;;;;;37.05;23.00;98426.25;5093057;28;20098;-80
2022/08/04 08:36:28;;;;;;;1.40;1.20;;;;;;;36.81;26.07;98432.34;5094779;28;20391;-80
2022/08/04 08:39:12;;;;;;;1.65;1.55;;;;;;;35.94;23.03;98429.16;5094526;28;20127;-81
2022/08/04 08:41:59;;;;;;;3.72;1.40;;;;;;;36.06;24.04;98425.13;5095425;28;20028;-81
2022/08/04 08:44:39;;;;;;;1.48;1.20;;;;;;;34.89;23.17;98430.91;5092991;28;20028;-81
2022/08/04 08:47:32;;;;;;;2.83;1.50;;;;;;;35.99;22.19;98431.31;5089928;28;20032;-81
2022/08/04 16:49:05;;;;;;;1.00;1.00;;;;;;;31.70;35.86;98246.09;5089201;27;20481;-82
2022/08/04 16:51:32;;;;;;;1.10;1.10;;;;;;;34.79;32.07;98240.38;5092937;28;20042;-85
2022/08/04 16:54:03;;;;;;;1.10;1.10;;;;;;;35.53;28.57;98238.44;5093972;28;20036;-83
2022/08/04 16:56:31;;;;;;;1.13;1.08;;;;;;;37.06;24.85;98238.84;5091336;28;20038;-82
2022/08/04 16:59:04;;;;;;;1.15;1.10;;;;;;;36.50;26.53;98246.53;5094595;28;20031;-82
2022/08/04 17:01:31;;;;;;;2.67;1.10;;;;;;;36.12;26.08;98258.56;5090416;28;20480;-82
2022/08/04 17:04:03;;;;;;;1.17;1.15;;;;;;;36.06;27.04;98256.44;5092420;28;20490;-81
2022/08/04 17:06:37;;;;;;;2.15;1.05;;;;;;;35.85;28.07;98248.53;5090102;28;20032;-82
2022/08/04 17:09:15;;;;;;;0.90;0.90;;;;;;;36.38;26.04;98250.59;5090340;28;20062;-83
2022/08/04 17:11:45;;;;;;;2.20;0.93;;;;;;;36.82;24.73;98247.09;5094716;28;20020;-83
2022/08/04 17:14:12;;;;;;;1.08;1.05;;;;;;;36.47;25.53;98248.34;5097600;28;20034;-82
2022/08/04 17:16:42;;;;;;;1.20;1.10;;;;;;;36.49;26.00;98248.59;5091243;28;20056;-81
2022/08/04 17:19:09;;;;;;;1.20;1.10;;;;;;;37.19;24.83;98257.06;5091752;28;20059;-81
2022/08/04 17:21:36;;;;;;;1.08;1.00;;;;;;;37.60;25.12;98251.56;5104518;28;20485;-81
2022/08/04 17:24:04;;;;;;;1.90;0.70;;;;;;;38.05;24.40;98252.25;5097285;28;20028;-82
2022/08/04 17:26:33;;;;;;;0.80;0.80;;;;;;;38.17;24.38;98247.25;5092026;28;20040;-80
2022/08/04 17:29:00;;;;;;;1.10;1.10;;;;;;;38.34;23.92;98245.94;5097842;28;20027;-82
2022/08/04 17:31:28;;;;;;;0.90;0.90;;;;;;;38.00;24.33;98245.25;5095399;28;20035;-82
2022/08/04 17:33:57;;;;;;;1.42;1.23;;;;;;;37.52;26.51;98249.75;5090766;28;20077;-81
2022/08/04 17:36:29;;;;;;;14.35;1.58;;;;;;;36.93;25.41;98250.78;5090846;28;20035;-82
2022/08/04 17:39:22;;;;;;;0.90;0.90;;;;;;;37.26;23.55;98247.94;5097567;28;20627;-82
2022/08/04 17:41:53;;;;;;;0.80;0.80;;;;;;;37.00;24.86;98250.28;5085652;28;20030;-81
2022/08/04 17:44:20;;;;;;;2.25;1.20;;;;;;;36.42;26.29;98251.13;5095519;28;20115;-82
2022/08/04 17:46:47;;;;;;;1.30;0.80;;;;;;;36.64;24.12;98242.66;5093164;28;20058;-81
2022/08/04 17:49:16;;;;;;;3.25;0.90;;;;;;;36.33;26.82;98254.22;5091125;28;20368;-82
2022/08/04 17:51:45;;;;;;;1.10;1.00;;;;;;;36.55;23.62;98245.75;5095571;28;20066;-81
2022/08/04 17:54:32;;;;;;;0.90;0.90;;;;;;;36.60;24.98;98250.69;5091554;28;20396;-82
2022/08/04 17:57:20;;;;;;;0.82;0.82;;;;;;;36.18;24.39;98250.78;5094807;28;20028;-82
2022/08/04 17:59:51;;;;;;;0.82;0.82;;;;;;;36.13;24.39;98252.31;5082838;28;20119;-83
2022/08/04 18:02:26;;;;;;;0.93;0.93;;;;;;;36.48;24.51;98254.84;5078579;28;20029;-83
2022/08/04 18:04:53;;;;;;;1.00;0.90;;;;;;;36.64;24.35;98254.84;5084119;28;20499;-82
2022/08/04 18:07:32;;;;;;;0.70;0.70;;;;;;;36.82;24.08;98253.59;5081411;28;20020;-82
2022/08/04 18:10:00;;;;;;;1.00;1.00;;;;;;;36.59;22.84;98261.38;5078611;28;20033;-83
2022/08/04 18:12:34;;;;;;;0.70;0.70;;;;;;;36.15;25.18;98263.25;5077733;28;20412;-82
2022/08/04 18:15:21;;;;;;;0.90;0.90;;;;;;;35.49;25.66;98257.88;5086522;28;20044;-82
2022/08/04 18:17:49;;;;;;;0.93;0.93;;;;;;;35.34;25.16;98264.50;5088416;28;20040;-82
2022/08/04 18:20:18;;;;;;;1.02;1.00;;;;;;;35.31;24.06;98267.63;5079975;28;20480;-82
2022/08/04 18:22:48;;;;;;;1.35;1.05;;;;;;;35.85;23.62;98275.00;5079882;28;20035;-82
2022/08/04 18:25:18;;;;;;;1.50;1.10;;;;;;;35.96;24.24;98274.31;5081995;28;20032;-83
2022/08/04 18:27:52;;;;;;;1.67;1.00;;;;;;;35.89;24.14;98271.94;5079033;28;20032;-82
2022/08/04 18:30:19;;;;;;;0.85;0.85;;;;;;;36.22;23.97;98275.00;5076128;28;20374;-82
2022/08/04 18:32:46;;;;;;;1.05;0.95;;;;;;;36.32;23.75;98266.94;5076541;28;20040;-81
2022/08/04 18:35:12;;;;;;;3.03;1.13;;;;;;;36.41;23.02;98273.22;5085230;28;20404;-81
2022/08/04 18:37:39;;;;;;;0.82;0.82;;;;;;;36.54;22.85;98273.59;5083078;28;20111;-81
2022/08/04 18:40:06;;;;;;;1.20;1.00;;;;;;;36.71;22.87;98268.66;5076391;28;20040;-81
2022/08/04 18:42:33;;;;;;;1.00;0.90;;;;;;;36.64;23.19;98274.88;5076222;28;20082;-80
2022/08/04 18:44:59;;;;;;;0.80;0.80;;;;;;;36.50;22.39;98278.75;5081084;28;20056;-81
2022/08/04 18:47:25;;;;;;;5.07;0.80;;;;;;;36.52;22.61;98275.41;5081504;28;20411;-80
2022/08/04 18:49:55;;;;;;;0.68;0.68;;;;;;;36.51;22.87;98279.53;5081023;28;20032;-80
2022/08/04 18:52:21;;;;;;;0.73;0.73;;;;;;;36.33;22.91;98279.97;5075177;28;20029;-80
2022/08/04 18:54:48;;;;;;;1.15;0.68;;;;;;;36.42;22.09;98291.97;5077894;28;20089;-80
2022/08/04 18:57:23;;;;;;;0.95;0.95;;;;;;;36.44;23.07;98283.66;5079662;28;20108;-80
2022/08/04 18:59:49;;;;;;;0.80;0.80;;;;;;;36.35;22.60;98291.66;5078855;28;20071;-80
2022/08/04 19:02:15;;;;;;;0.80;0.80;;;;;;;36.23;22.28;98285.13;5073567;28;20021;-80
2022/08/04 19:04:42;;;;;;;0.85;0.63;;;;;;;36.12;22.53;98287.16;5074643;28;20033;-80
2022/08/04 19:07:12;;;;;;;1.00;0.90;;;;;;;35.99;23.11;98288.38;5079878;28;20044;-80
2022/08/04 19:09:39;;;;;;;1.60;0.93;;;;;;;36.03;22.32;98288.94;5078641;28;20105;-80
2022/08/04 19:12:05;;;;;;;1.17;0.80;;;;;;;35.99;22.56;98282.66;5076565;28;20036;-80
2022/08/04 19:14:31;;;;;;;0.93;0.80;;;;;;;35.95;22.31;98290.69;5080383;28;20086;-80
2022/08/04 19:16:57;;;;;;;4.35;0.70;;;;;;;35.81;22.39;98285.13;5084473;28;20047;-81
2022/08/04 19:19:23;;;;;;;1.30;0.90;;;;;;;35.70;22.55;98291.56;5088150;28;20044;-81
2022/08/04 19:21:49;;;;;;;1.05;1.02;;;;;;;35.64;22.86;98289.97;5072903;28;20036;-81
2022/08/04 19:24:17;;;;;;;1.77;1.40;;;;;;;35.67;23.09;98286.84;5076030;28;20067;-81
2022/08/04 19:26:43;;;;;;;0.63;0.63;;;;;;;35.70;22.72;98283.00;5074117;28;20041;-81
2022/08/04 19:29:09;;;;;;;0.73;0.73;;;;;;;35.67;22.73;98283.22;5081272;28;20067;-81
2022/08/04 19:31:35;;;;;;;1.92;0.93;;;;;;;35.49;23.34;98289.28;5075221;28;20057;-81
2022/08/04 19:34:01;;;;;;;1.15;0.88;;;;;;;35.24;23.71;98282.34;5084470;28;20115;-82
2022/08/04 19:36:29;;;;;;;1.48;1.33;;;;;;;35.09;23.40;98287.41;5078857;28;20036;-81
2022/08/04 19:39:00;;;;;;;1.35;0.93;;;;;;;34.95;24.23;98286.22;5076159;28;20029;-81
2022/08/04 19:41:28;;;;;;;1.00;0.90;;;;;;;34.74;24.24;98281.84;5074748;28;20047;-81
2022/08/04 19:43:54;;;;;;;1.77;1.00;;;;;;;34.69;24.22;98280.50;5074419;28;20451;-81
2022/08/04 19:46:21;;;;;;;1.00;0.90;;;;;;;34.74;24.27;98271.22;5077280;28;20037;-81
2022/08/04 19:48:47;;;;;;;1.30;1.05;;;;;;;34.83;24.01;98275.97;5074779;28;20039;-82
2022/08/04 19:51:16;;;;;;;1.00;1.00;;;;;;;34.89;24.44;98281.72;5073495;28;20064;-81
2022/08/04 19:53:42;;;;;;;1.40;1.10;;;;;;;35.06;23.84;98276.97;5074181;28;20037;-81
2022/08/04 19:56:08;;;;;;;0.70;0.70;;;;;;;35.17;23.83;98280.72;5074256;28;20047;-80
2022/08/04 19:58:34;;;;;;;1.80;1.10;;;;;;;35.31;23.53;98276.19;5085383;28;20426;-80
2022/08/04 20:01:01;;;;;;;0.98;0.85;;;;;;;35.18;23.37;98282.28;5076048;28;20036;-81
2022/08/04 20:03:27;;;;;;;1.15;1.05;;;;;;;34.86;24.07;98277.03;5073813;28;20025;-81
2022/08/04 20:05:54;;;;;;;1.30;1.08;;;;;;;34.84;23.71;98276.75;5086172;28;20032;-81
2022/08/04 20:08:22;;;;;;;1.15;1.05;;;;;;;35.00;23.61;98279.78;5078970;28;20043;-81
2022/08/04 20:10:48;;;;;;;2.60;1.20;;;;;;;35.07;23.49;98272.84;5078885;28;20037;-81